Time;durP1;ratioP1;P1;durP2;ratioP2;P2;SDS_P1;SDS_P2;PMS_P1;PMS_P2;Temp;Humidity;BMP_temperature;BMP_pressure;BME280_temperature;BME280_humidity;BME280_pressure;Samples;Min_cycle;Max_cycle;Signal;HPM_P1;HPM_P2
2024/01/18 00:00:34;;;;;;;23.10;10.80;;;;;;;;;;5059146;28;20199;-80
2024/01/18 00:03:21;;;;;;;35.47;14.80;;;;;;;;;;5076631;28;20541;-79
2024/01/18 00:05:49;;;;;;;45.50;15.00;;;;;;;;;;5076723;28;20252;-80
2024/01/18 00:08:16;;;;;;;39.00;13.00;;;;;;;;;;5076328;28;20559;-80
2024/01/18 00:10:43;;;;;;;20.70;12.10;;;;;;;;;;5076671;28;20223;-79
2024/01/18 00:13:10;;;;;;;16.83;9.40;;;;;;;;;;5077690;28;20195;-81
2024/01/18 00:15:38;;;;;;;18.80;9.30;;;;;;;;;;5076376;28;20203;-80
2024/01/18 00:18:05;;;;;;;30.23;12.00;;;;;;;;;;5076484;28;20210;-80
2024/01/18 00:20:32;;;;;;;19.00;10.07;;;;;;;;;;5076104;28;20244;-79
2024/01/18 00:22:59;;;;;;;18.20;9.43;;;;;;;;;;5076382;28;20207;-79
2024/01/18 00:25:27;;;;;;;23.53;10.93;;;;;;;;;;5075864;28;20214;-79
2024/01/18 00:27:53;;;;;;;40.37;12.97;;;;;;;;;;5075943;28;20207;-79
2024/01/18 00:30:21;;;;;;;31.43;11.43;;;;;;;;;;5075748;28;20231;-79
2024/01/18 00:32:48;;;;;;;31.57;14.17;;;;;;;;;;5075894;28;20286;-79
2024/01/18 00:35:15;;;;;;;18.67;9.93;;;;;;;;;;5075505;28;20210;-79
2024/01/18 00:37:42;;;;;;;19.13;9.63;;;;;;;;;;5076054;28;20290;-79
2024/01/18 00:40:12;;;;;;;62.70;19.27;;;;;;;;;;5075554;28;20234;-79
2024/01/18 00:42:39;;;;;;;52.73;16.97;;;;;;;;;;5075681;28;20210;-79
2024/01/18 00:45:07;;;;;;;32.67;12.67;;;;;;;;;;5075683;28;20649;-79
2024/01/18 00:47:34;;;;;;;28.77;12.80;;;;;;;;;;5075632;28;20218;-76
2024/01/18 00:50:01;;;;;;;21.17;11.10;;;;;;;;;;5075637;28;20203;-76
2024/01/18 00:52:29;;;;;;;23.93;10.90;;;;;;;;;;5075135;28;20253;-77
2024/01/18 00:54:57;;;;;;;24.00;13.17;;;;;;;;;;5075201;28;20219;-77
2024/01/18 00:57:23;;;;;;;23.63;11.57;;;;;;;;;;5075251;28;20207;-77
2024/01/18 00:59:51;;;;;;;18.47;9.30;;;;;;;;;;5075043;28;20223;-77
2024/01/18 01:02:20;;;;;;;34.13;13.20;;;;;;;;;;5074740;28;20555;-77
2024/01/18 01:04:47;;;;;;;18.40;10.13;;;;;;;;;;5074770;28;20199;-77
2024/01/18 01:07:14;;;;;;;22.27;10.60;;;;;;;;;;5075105;28;20209;-79
2024/01/18 01:09:41;;;;;;;17.90;9.27;;;;;;;;;;5057443;28;20199;-79
2024/01/18 01:12:08;;;;;;;55.37;18.03;;;;;;;;;;5075110;28;20308;-79
2024/01/18 01:14:35;;;;;;;50.80;15.67;;;;;;;;;;5074863;28;20549;-78
2024/01/18 01:17:03;;;;;;;29.43;13.73;;;;;;;;;;5074769;28;20203;-77
2024/01/18 01:19:30;;;;;;;19.33;9.40;;;;;;;;;;5074653;28;20207;-76
2024/01/18 01:21:57;;;;;;;17.43;9.93;;;;;;;;;;5074954;28;20214;-77
2024/01/18 01:24:24;;;;;;;33.10;12.53;;;;;;;;;;5074784;28;20191;-77
2024/01/18 01:26:52;;;;;;;34.60;13.20;;;;;;;;;;5075069;28;20199;-77
2024/01/18 01:29:19;;;;;;;18.50;10.17;;;;;;;;;;5074350;28;20195;-77
2024/01/18 01:31:46;;;;;;;19.50;9.40;;;;;;;;;;5074149;28;20249;-77
2024/01/18 01:34:13;;;;;;;17.53;9.80;;;;;;;;;;5074685;28;20222;-77
2024/01/18 01:36:40;;;;;;;42.33;13.83;;;;;;;;;;5074627;28;20649;-77
2024/01/18 01:39:07;;;;;;;19.47;11.00;;;;;;;;;;5073709;28;20207;-77
2024/01/18 01:41:34;;;;;;;19.60;10.00;;;;;;;;;;5073069;28;20215;-76
2024/01/18 01:44:02;;;;;;;21.83;11.60;;;;;;;;;;5073380;28;20199;-76
2024/01/18 01:46:29;;;;;;;25.27;11.40;;;;;;;;;;5073121;28;20195;-76
2024/01/18 01:49:00;;;;;;;23.03;10.60;;;;;;;;;;5055476;28;20195;-76
2024/01/18 01:51:32;;;;;;;19.03;9.90;;;;;;;;;;5038600;28;20211;-76
2024/01/18 01:54:02;;;;;;;19.03;9.93;;;;;;;;;;5055576;28;20520;-76
2024/01/18 01:56:30;;;;;;;76.40;19.27;;;;;;;;;;5039609;28;20221;-76
2024/01/18 01:58:58;;;;;;;28.30;12.73;;;;;;;;;;5052699;28;20228;-75
2024/01/18 02:01:25;;;;;;;27.77;12.20;;;;;;;;;;5036622;28;20203;-76
2024/01/18 02:03:52;;;;;;;26.47;13.13;;;;;;;;;;5053779;28;20656;-76
2024/01/18 02:06:19;;;;;;;21.60;9.83;;;;;;;;;;5052954;28;20210;-76
2024/01/18 02:08:47;;;;;;;39.83;14.57;;;;;;;;;;5054085;28;20191;-76
2024/01/18 02:11:14;;;;;;;21.83;10.30;;;;;;;;;;5054132;28;20282;-76
2024/01/18 02:13:41;;;;;;;20.33;8.33;;;;;;;;;;5054343;28;20200;-76
2024/01/18 02:16:09;;;;;;;19.40;9.17;;;;;;;;;;5052699;28;20199;-76
2024/01/18 02:18:36;;;;;;;19.00;9.70;;;;;;;;;;5054172;28;20242;-79
2024/01/18 02:21:05;;;;;;;32.57;13.07;;;;;;;;;;5054092;28;20203;-79
2024/01/18 02:23:32;;;;;;;31.10;12.50;;;;;;;;;;5053341;28;20203;-78
2024/01/18 02:25:59;;;;;;;42.27;17.23;;;;;;;;;;5052758;28;20196;-75
2024/01/18 02:28:27;;;;;;;15.93;9.53;;;;;;;;;;5054072;28;20207;-76
2024/01/18 02:30:54;;;;;;;15.20;8.33;;;;;;;;;;5053352;28;20227;-76
2024/01/18 02:33:21;;;;;;;31.03;11.80;;;;;;;;;;5052527;28;20200;-76
2024/01/18 02:35:49;;;;;;;22.37;9.83;;;;;;;;;;5053696;28;20222;-75
2024/01/18 02:38:16;;;;;;;20.20;9.40;;;;;;;;;;5052537;28;20211;-76
2024/01/18 02:40:43;;;;;;;18.73;8.60;;;;;;;;;;5053798;28;20211;-76
2024/01/18 02:43:10;;;;;;;18.17;9.13;;;;;;;;;;5053905;28;20637;-76
2024/01/18 02:45:37;;;;;;;32.23;11.83;;;;;;;;;;5053655;28;20192;-76
2024/01/18 02:48:05;;;;;;;30.93;11.17;;;;;;;;;;5053860;28;20208;-76
2024/01/18 02:50:32;;;;;;;14.83;8.87;;;;;;;;;;5052007;28;20267;-76
2024/01/18 02:52:59;;;;;;;14.93;7.73;;;;;;;;;;5053816;28;20207;-75
2024/01/18 02:55:26;;;;;;;18.57;8.73;;;;;;;;;;5053328;28;20226;-76
2024/01/18 02:57:55;;;;;;;33.37;10.90;;;;;;;;;;5053403;28;20196;-76
2024/01/18 03:00:22;;;;;;;20.47;9.33;;;;;;;;;;5055788;28;20210;-76
2024/01/18 03:02:49;;;;;;;18.43;8.53;;;;;;;;;;5073292;28;20581;-76
2024/01/18 03:05:16;;;;;;;18.70;9.40;;;;;;;;;;5073222;28;20206;-76
2024/01/18 03:07:43;;;;;;;17.03;8.80;;;;;;;;;;5073196;28;20264;-76
2024/01/18 03:10:10;;;;;;;44.13;14.37;;;;;;;;;;5073328;28;20261;-76
2024/01/18 03:12:39;;;;;;;16.63;8.10;;;;;;;;;;5073139;28;20230;-76
2024/01/18 03:15:08;;;;;;;14.73;8.07;;;;;;;;;;5075679;28;20218;-76
2024/01/18 03:17:35;;;;;;;18.53;9.30;;;;;;;;;;5059568;28;20207;-76
2024/01/18 03:20:07;;;;;;;23.37;9.57;;;;;;;;;;5077119;28;20199;-76
2024/01/18 03:22:34;;;;;;;16.70;7.63;;;;;;;;;;5077158;28;20195;-75
2024/01/18 03:25:01;;;;;;;11.73;6.90;;;;;;;;;;5059270;28;20218;-75
2024/01/18 03:27:29;;;;;;;12.43;6.93;;;;;;;;;;5059306;28;20260;-76
2024/01/18 03:29:56;;;;;;;20.87;8.77;;;;;;;;;;5076774;28;20652;-76
2024/01/18 03:32:24;;;;;;;22.80;8.17;;;;;;;;;;5059196;28;20223;-76
2024/01/18 03:34:51;;;;;;;17.47;9.17;;;;;;;;;;5059309;28;20202;-76
2024/01/18 03:37:18;;;;;;;13.10;7.23;;;;;;;;;;5059033;28;20226;-76
2024/01/18 03:39:45;;;;;;;16.10;7.23;;;;;;;;;;5076616;28;20206;-76
2024/01/18 03:42:12;;;;;;;12.20;6.90;;;;;;;;;;5058926;28;20218;-75
2024/01/18 03:44:39;;;;;;;13.37;7.40;;;;;;;;;;5076852;28;20203;-76
2024/01/18 03:47:06;;;;;;;14.90;6.77;;;;;;;;;;5059438;28;20199;-76
2024/01/18 03:49:33;;;;;;;12.80;7.13;;;;;;;;;;5076922;28;20196;-76
2024/01/18 03:52:01;;;;;;;12.23;6.77;;;;;;;;;;5076696;28;20265;-76
2024/01/18 03:54:28;;;;;;;19.90;9.07;;;;;;;;;;5058995;28;20519;-75
2024/01/18 03:56:55;;;;;;;22.33;8.60;;;;;;;;;;5076488;28;20207;-79
2024/01/18 03:59:23;;;;;;;14.00;7.23;;;;;;;;;;5058837;28;20231;-76
2024/01/18 04:01:51;;;;;;;11.83;6.80;;;;;;;;;;5076487;28;20649;-76
2024/01/18 04:04:17;;;;;;;11.77;7.10;;;;;;;;;;5076394;28;20207;-77
2024/01/18 04:06:45;;;;;;;11.07;6.53;;;;;;;;;;5076483;28;20195;-76
2024/01/18 04:09:12;;;;;;;16.43;7.63;;;;;;;;;;5076121;28;20199;-77
2024/01/18 04:11:39;;;;;;;13.63;7.67;;;;;;;;;;5076259;28;20226;-76
2024/01/18 04:14:06;;;;;;;12.83;7.40;;;;;;;;;;5042336;28;20199;-77
2024/01/18 04:16:34;;;;;;;12.77;7.17;;;;;;;;;;5076387;28;20199;-80
2024/01/18 04:19:01;;;;;;;13.60;7.63;;;;;;;;;;5058852;28;20191;-76
2024/01/18 04:21:28;;;;;;;26.00;10.57;;;;;;;;;;5058281;28;20203;-76
2024/01/18 04:23:56;;;;;;;15.10;8.87;;;;;;;;;;5076206;28;20549;-77
2024/01/18 04:26:24;;;;;;;15.33;7.97;;;;;;;;;;5075285;28;20652;-77
2024/01/18 04:28:51;;;;;;;16.63;7.50;;;;;;;;;;5058587;28;20199;-76
2024/01/18 04:31:19;;;;;;;17.63;8.70;;;;;;;;;;5075852;28;20242;-77
2024/01/18 04:33:46;;;;;;;19.13;8.07;;;;;;;;;;5075858;28;20203;-78
2024/01/18 04:36:14;;;;;;;13.17;6.90;;;;;;;;;;5057979;28;20199;-77
2024/01/18 04:38:41;;;;;;;13.77;7.10;;;;;;;;;;5075836;28;20276;-77
2024/01/18 04:41:08;;;;;;;12.40;7.67;;;;;;;;;;5075932;28;20188;-76
2024/01/18 04:43:35;;;;;;;39.50;10.67;;;;;;;;;;5075970;28;20202;-80
2024/01/18 04:46:04;;;;;;;104.37;23.83;;;;;;;;;;5075555;28;20210;-80
2024/01/18 04:48:31;;;;;;;11.47;6.80;;;;;;;;;;5075546;28;20203;-76
2024/01/18 04:50:58;;;;;;;14.93;7.67;;;;;;;;;;5075312;28;20237;-77
2024/01/18 04:53:25;;;;;;;15.30;7.40;;;;;;;;;;5075330;28;20268;-77
2024/01/18 04:55:53;;;;;;;12.60;7.43;;;;;;;;;;5075489;28;20211;-77
2024/01/18 04:58:21;;;;;;;12.43;7.20;;;;;;;;;;5057845;28;20222;-76
2024/01/18 05:00:48;;;;;;;20.83;16.83;;;;;;;;;;5058026;28;20192;-76
2024/01/18 05:03:15;;;;;;;20.30;11.47;;;;;;;;;;5074923;28;20648;-77
2024/01/18 05:05:43;;;;;;;17.30;8.63;;;;;;;;;;5056271;28;20232;-76
2024/01/18 05:08:10;;;;;;;15.20;6.93;;;;;;;;;;5072825;28;20715;-76
2024/01/18 05:10:37;;;;;;;12.33;7.10;;;;;;;;;;5073629;28;20230;-76
2024/01/18 05:13:04;;;;;;;15.90;8.47;;;;;;;;;;5073410;28;20239;-77
2024/01/18 05:15:31;;;;;;;30.97;12.27;;;;;;;;;;5073666;28;20231;-76
2024/01/18 05:17:59;;;;;;;46.30;18.23;;;;;;;;;;5073618;28;20329;-77
2024/01/18 05:20:28;;;;;;;38.50;16.20;;;;;;;;;;5072759;28;20246;-76
2024/01/18 05:22:55;;;;;;;22.63;11.83;;;;;;;;;;5073903;28;20223;-77
2024/01/18 05:25:22;;;;;;;23.70;9.20;;;;;;;;;;5073889;28;20306;-77
2024/01/18 05:27:49;;;;;;;37.73;14.17;;;;;;;;;;5074253;28;20223;-76
2024/01/18 05:30:17;;;;;;;47.07;14.77;;;;;;;;;;5073006;28;20634;-76
2024/01/18 05:32:44;;;;;;;16.07;9.23;;;;;;;;;;5074011;28;20250;-76
2024/01/18 05:35:11;;;;;;;24.10;11.43;;;;;;;;;;5072510;28;20236;-76
2024/01/18 05:37:38;;;;;;;36.17;15.33;;;;;;;;;;5073929;28;20223;-76
2024/01/18 05:40:07;;;;;;;15.53;8.17;;;;;;;;;;5072994;28;20227;-76
2024/01/18 05:42:34;;;;;;;17.47;7.80;;;;;;;;;;5073778;28;20310;-76
2024/01/18 05:45:01;;;;;;;18.90;9.63;;;;;;;;;;5064466;28;20700;-76
2024/01/18 05:47:28;;;;;;;15.70;8.47;;;;;;;;;;5065899;28;20590;-76
2024/01/18 05:49:55;;;;;;;34.60;14.43;;;;;;;;;;5062944;28;20224;-76
2024/01/18 05:52:22;;;;;;;23.97;9.93;;;;;;;;;;5061152;28;20231;-76
2024/01/18 05:54:50;;;;;;;20.20;10.60;;;;;;;;;;5070639;28;20235;-76
2024/01/18 05:57:17;;;;;;;13.50;8.47;;;;;;;;;;5072478;28;20607;-76
2024/01/18 05:59:44;;;;;;;13.83;7.97;;;;;;;;;;5056920;28;20240;-75
2024/01/18 06:02:11;;;;;;;19.40;8.63;;;;;;;;;;5046721;28;20235;-76
2024/01/18 06:04:38;;;;;;;17.67;9.80;;;;;;;;;;5042976;28;20277;-76
2024/01/18 06:07:05;;;;;;;17.63;8.63;;;;;;;;;;5047291;28;20236;-75
2024/01/18 06:09:33;;;;;;;20.10;10.40;;;;;;;;;;5041387;28;20224;-76
2024/01/18 06:12:00;;;;;;;19.87;10.13;;;;;;;;;;5040235;28;20315;-75
2024/01/18 06:14:28;;;;;;;22.00;10.33;;;;;;;;;;5042811;28;20196;-76
2024/01/18 06:16:55;;;;;;;26.37;12.87;;;;;;;;;;5053352;28;20204;-76
2024/01/18 06:19:23;;;;;;;18.70;10.60;;;;;;;;;;5053845;28;20192;-75
2024/01/18 06:21:50;;;;;;;17.20;11.13;;;;;;;;;;5053054;28;20204;-76
2024/01/18 06:24:17;;;;;;;57.60;17.27;;;;;;;;;;5051279;28;20192;-77
2024/01/18 06:26:44;;;;;;;27.57;11.57;;;;;;;;;;5051754;28;20203;-76
2024/01/18 06:29:16;;;;;;;24.27;11.47;;;;;;;;;;5053437;28;20199;-76
2024/01/18 06:31:43;;;;;;;80.37;28.17;;;;;;;;;;5053564;28;20224;-77
2024/01/18 06:34:10;;;;;;;61.17;27.93;;;;;;;;;;5053248;28;20211;-76
2024/01/18 06:36:37;;;;;;;55.87;18.50;;;;;;;;;;5053595;28;20196;-76
2024/01/18 06:39:05;;;;;;;35.70;16.00;;;;;;;;;;5053342;28;20192;-76
2024/01/18 06:41:32;;;;;;;24.20;12.33;;;;;;;;;;5053369;28;20255;-75
2024/01/18 06:44:00;;;;;;;35.80;15.20;;;;;;;;;;5051946;28;20196;-77
2024/01/18 06:46:28;;;;;;;25.30;14.20;;;;;;;;;;5053379;28;20196;-77
2024/01/18 06:48:57;;;;;;;34.73;15.97;;;;;;;;;;5052671;28;20242;-77
2024/01/18 06:51:24;;;;;;;35.80;16.00;;;;;;;;;;5053137;28;20192;-76
2024/01/18 06:53:51;;;;;;;23.10;11.60;;;;;;;;;;5053180;28;20696;-76
2024/01/18 06:56:18;;;;;;;59.93;22.03;;;;;;;;;;5053006;28;20204;-76
2024/01/18 06:58:45;;;;;;;42.30;16.30;;;;;;;;;;5053207;28;20299;-76
2024/01/18 07:01:12;;;;;;;72.00;20.23;;;;;;;;;;5052960;28;20554;-76
2024/01/18 07:03:42;;;;;;;33.73;14.10;;;;;;;;;;5053201;28;20188;-76
2024/01/18 07:06:10;;;;;;;31.67;16.27;;;;;;;;;;5052288;28;20203;-76
2024/01/18 07:08:37;;;;;;;21.20;11.13;;;;;;;;;;5053346;28;20189;-76
2024/01/18 07:11:04;;;;;;;22.73;11.47;;;;;;;;;;5053271;28;20191;-76
2024/01/18 07:13:32;;;;;;;17.50;9.90;;;;;;;;;;5051925;28;20227;-76
2024/01/18 07:15:59;;;;;;;25.27;14.30;;;;;;;;;;5053369;28;20212;-76
2024/01/18 07:18:26;;;;;;;21.10;11.37;;;;;;;;;;5052939;28;20195;-77
2024/01/18 07:20:54;;;;;;;18.17;10.80;;;;;;;;;;5052259;28;20212;-76
2024/01/18 07:23:21;;;;;;;25.93;11.97;;;;;;;;;;5053152;28;20197;-77
2024/01/18 07:25:48;;;;;;;28.37;12.30;;;;;;;;;;5051845;28;20294;-76
2024/01/18 07:28:15;;;;;;;32.33;13.87;;;;;;;;;;5053219;28;20189;-77
2024/01/18 07:30:42;;;;;;;16.70;9.43;;;;;;;;;;5051878;28;20234;-76
2024/01/18 07:33:10;;;;;;;17.17;9.23;;;;;;;;;;5053221;28;20225;-76
2024/01/18 07:35:37;;;;;;;15.37;8.70;;;;;;;;;;5052757;28;20610;-77
2024/01/18 07:38:04;;;;;;;20.90;9.20;;;;;;;;;;5052968;28;20207;-76
2024/01/18 07:40:31;;;;;;;18.57;9.90;;;;;;;;;;5052955;28;20206;-76
2024/01/18 07:42:59;;;;;;;18.90;8.97;;;;;;;;;;5051738;28;20204;-77
2024/01/18 07:45:26;;;;;;;15.57;9.30;;;;;;;;;;5052005;28;20211;-77
2024/01/18 07:47:53;;;;;;;19.57;9.33;;;;;;;;;;5052790;28;20204;-76
2024/01/18 07:50:20;;;;;;;22.17;10.07;;;;;;;;;;5052958;28;20280;-77
2024/01/18 07:53:03;;;;;;;18.13;8.57;;;;;;;;;;5052852;28;20250;-76
2024/01/18 07:55:30;;;;;;;23.40;11.57;;;;;;;;;;5051928;28;20208;-76
2024/01/18 07:57:57;;;;;;;18.00;9.37;;;;;;;;;;5052397;28;20206;-77
2024/01/18 08:00:25;;;;;;;19.20;9.17;;;;;;;;;;5051607;28;20200;-76
2024/01/18 08:02:53;;;;;;;24.00;10.90;;;;;;;;;;5054849;28;20192;-77
2024/01/18 08:05:21;;;;;;;27.03;12.33;;;;;;;;;;5055818;28;20249;-77
2024/01/18 08:07:48;;;;;;;19.67;10.90;;;;;;;;;;5056316;28;20250;-76
2024/01/18 08:10:15;;;;;;;20.93;11.40;;;;;;;;;;5056502;28;20200;-77
2024/01/18 08:12:43;;;;;;;27.13;13.03;;;;;;;;;;5038761;28;20262;-77
2024/01/18 08:15:13;;;;;;;48.83;17.43;;;;;;;;;;5054853;28;20200;-77
2024/01/18 08:17:43;;;;;;;28.90;15.67;;;;;;;;;;5056112;28;20196;-76
2024/01/18 08:20:13;;;;;;;45.87;28.50;;;;;;;;;;5055789;28;20557;-77
2024/01/18 08:22:42;;;;;;;72.57;43.57;;;;;;;;;;5055915;28;20585;-77
2024/01/18 08:25:13;;;;;;;105.60;59.20;;;;;;;;;;5038510;28;20641;-76
2024/01/18 08:27:42;;;;;;;72.63;43.87;;;;;;;;;;5054709;28;20214;-76
2024/01/18 08:30:10;;;;;;;107.63;57.13;;;;;;;;;;5054724;28;20287;-77
2024/01/18 08:32:37;;;;;;;79.97;46.83;;;;;;;;;;5055551;28;20223;-76
2024/01/18 08:35:08;;;;;;;63.33;30.83;;;;;;;;;;5055808;28;20234;-76
2024/01/18 08:37:37;;;;;;;64.80;26.90;;;;;;;;;;5055482;28;20196;-76
2024/01/18 08:40:05;;;;;;;51.07;24.47;;;;;;;;;;5054555;28;20257;-76
2024/01/18 08:42:32;;;;;;;64.47;32.80;;;;;;;;;;5054279;28;20207;-77
2024/01/18 08:44:59;;;;;;;43.47;27.97;;;;;;;;;;5055774;28;20202;-77
2024/01/18 08:47:27;;;;;;;47.70;27.30;;;;;;;;;;5055748;28;20275;-77
2024/01/18 08:49:54;;;;;;;47.47;26.33;;;;;;;;;;5054358;28;20724;-76
2024/01/18 08:52:22;;;;;;;82.73;47.97;;;;;;;;;;5055337;28;20227;-77
2024/01/18 08:54:51;;;;;;;88.57;50.37;;;;;;;;;;5055337;28;20192;-77
2024/01/18 08:57:19;;;;;;;65.97;39.07;;;;;;;;;;5054120;28;20196;-76
2024/01/18 08:59:46;;;;;;;42.67;25.93;;;;;;;;;;5053915;28;20319;-78
2024/01/18 09:02:14;;;;;;;40.73;21.30;;;;;;;;;;5055183;28;20572;-77
2024/01/18 09:04:50;;;;;;;47.20;23.37;;;;;;;;;;5054157;28;20207;-76
2024/01/18 09:07:19;;;;;;;41.40;22.93;;;;;;;;;;5053871;28;20204;-76
2024/01/18 09:09:46;;;;;;;35.33;20.27;;;;;;;;;;5053936;28;20204;-77
2024/01/18 09:12:14;;;;;;;39.47;23.90;;;;;;;;;;5037105;28;20208;-77
2024/01/18 09:14:42;;;;;;;45.40;19.67;;;;;;;;;;5055444;28;20228;-76
2024/01/18 09:17:12;;;;;;;42.03;20.07;;;;;;;;;;5053584;28;20204;-76
2024/01/18 09:19:39;;;;;;;36.43;17.53;;;;;;;;;;5055148;28;20212;-76
2024/01/18 09:22:07;;;;;;;34.13;16.93;;;;;;;;;;5054675;28;20290;-76
2024/01/18 09:24:34;;;;;;;38.63;17.57;;;;;;;;;;5053761;28;20203;-77
2024/01/18 09:27:01;;;;;;;42.27;19.37;;;;;;;;;;5055035;28;20203;-77
2024/01/18 09:29:28;;;;;;;37.50;17.77;;;;;;;;;;5055035;28;20291;-76
2024/01/18 09:31:56;;;;;;;34.20;16.83;;;;;;;;;;5054972;28;20196;-77
2024/01/18 09:34:24;;;;;;;27.83;14.73;;;;;;;;;;5053698;28;20224;-77
2024/01/18 09:36:51;;;;;;;40.73;18.20;;;;;;;;;;5054722;28;20218;-77
2024/01/18 09:39:18;;;;;;;43.07;17.67;;;;;;;;;;5053417;28;20265;-77
2024/01/18 09:41:52;;;;;;;57.47;21.87;;;;;;;;;;5054521;28;20211;-77
2024/01/18 09:44:24;;;;;;;38.53;19.57;;;;;;;;;;5054810;28;20216;-76
2024/01/18 09:46:53;;;;;;;35.40;18.07;;;;;;;;;;5054383;28;20204;-76
2024/01/18 09:49:20;;;;;;;58.80;21.27;;;;;;;;;;5053037;28;20253;-76
2024/01/18 09:51:48;;;;;;;45.70;17.57;;;;;;;;;;5053194;28;20204;-77
2024/01/18 09:54:15;;;;;;;41.20;17.40;;;;;;;;;;5053132;28;20911;-76
2024/01/18 09:56:45;;;;;;;36.73;17.30;;;;;;;;;;5053148;28;20199;-76
2024/01/18 09:59:18;;;;;;;26.77;16.40;;;;;;;;;;5054297;28;20224;-76
2024/01/18 10:01:46;;;;;;;25.63;15.53;;;;;;;;;;5054134;28;20219;-76
2024/01/18 10:04:13;;;;;;;31.77;16.63;;;;;;;;;;5053076;28;20203;-76
2024/01/18 10:06:41;;;;;;;29.07;16.70;;;;;;;;;;5054284;28;20203;-76
2024/01/18 10:09:10;;;;;;;41.00;17.37;;;;;;;;;;5036488;28;20269;-77
2024/01/18 10:11:38;;;;;;;39.93;18.67;;;;;;;;;;5052777;28;20204;-76
2024/01/18 10:14:06;;;;;;;48.13;19.70;;;;;;;;;;5052689;28;20234;-77
2024/01/18 10:16:37;;;;;;;47.17;22.43;;;;;;;;;;5053993;28;20286;-76
2024/01/18 10:19:14;;;;;;;50.77;22.97;;;;;;;;;;5053134;28;20203;-76
2024/01/18 10:21:44;;;;;;;52.77;25.20;;;;;;;;;;5053847;28;20199;-76
2024/01/18 10:24:12;;;;;;;57.43;24.20;;;;;;;;;;5051931;28;20204;-78
2024/01/18 10:26:40;;;;;;;47.67;23.63;;;;;;;;;;5052636;28;20599;-76
2024/01/18 10:29:11;;;;;;;38.27;18.43;;;;;;;;;;5053678;28;20208;-77
2024/01/18 10:31:42;;;;;;;34.83;17.23;;;;;;;;;;5052473;28;20200;-76
2024/01/18 10:34:10;;;;;;;33.33;17.43;;;;;;;;;;5053582;28;20236;-77
2024/01/18 10:36:37;;;;;;;34.07;17.50;;;;;;;;;;5053169;28;20211;-76
2024/01/18 10:39:18;;;;;;;38.03;19.27;;;;;;;;;;5052173;28;20691;-77
2024/01/18 10:41:46;;;;;;;40.90;19.43;;;;;;;;;;5053546;28;20582;-76
2024/01/18 10:44:15;;;;;;;38.17;19.57;;;;;;;;;;5053610;28;20196;-76
2024/01/18 10:46:42;;;;;;;42.50;21.10;;;;;;;;;;5053172;28;20196;-76
2024/01/18 10:49:10;;;;;;;42.10;20.53;;;;;;;;;;5053280;28;20586;-76
2024/01/18 10:51:39;;;;;;;39.30;19.77;;;;;;;;;;5053372;28;20660;-77
2024/01/18 10:54:09;;;;;;;41.60;21.03;;;;;;;;;;5053192;28;20633;-76
2024/01/18 10:56:51;;;;;;;43.40;22.17;;;;;;;;;;5053288;28;20203;-76
2024/01/18 10:59:19;;;;;;;52.13;25.03;;;;;;;;;;5052980;28;20610;-76
2024/01/18 11:01:47;;;;;;;52.33;24.37;;;;;;;;;;5053412;28;20197;-76
2024/01/18 11:04:14;;;;;;;51.40;24.17;;;;;;;;;;5052418;28;20208;-76
2024/01/18 11:06:41;;;;;;;47.13;24.40;;;;;;;;;;5052787;28;20199;-76
2024/01/18 11:09:12;;;;;;;46.47;23.83;;;;;;;;;;5052308;28;20582;-76
2024/01/18 11:11:40;;;;;;;48.93;23.87;;;;;;;;;;5053339;28;20204;-78
2024/01/18 11:14:08;;;;;;;45.93;22.93;;;;;;;;;;5051924;28;20228;-77
2024/01/18 11:16:38;;;;;;;51.73;24.87;;;;;;;;;;5051908;28;20268;-76
2024/01/18 11:19:05;;;;;;;46.03;22.17;;;;;;;;;;5053129;28;20299;-76
2024/01/18 11:21:42;;;;;;;50.03;23.97;;;;;;;;;;5052894;28;20671;-77
2024/01/18 11:24:13;;;;;;;53.03;22.90;;;;;;;;;;5052115;28;20222;-76
2024/01/18 11:26:40;;;;;;;53.43;26.03;;;;;;;;;;5052519;28;20211;-77
2024/01/18 11:29:22;;;;;;;52.87;25.10;;;;;;;;;;5052548;28;20199;-77
2024/01/18 11:31:52;;;;;;;53.00;23.73;;;;;;;;;;5053044;28;20660;-77
2024/01/18 11:34:30;;;;;;;54.43;25.17;;;;;;;;;;5052012;28;20219;-77
2024/01/18 11:37:17;;;;;;;61.20;26.33;;;;;;;;;;5039490;28;20191;-76
2024/01/18 11:39:47;;;;;;;59.97;28.33;;;;;;;;;;5055819;28;20253;-76
2024/01/18 11:42:19;;;;;;;58.17;27.23;;;;;;;;;;5055892;28;20637;-77
2024/01/18 11:44:59;;;;;;;63.53;27.73;;;;;;;;;;5055848;28;20219;-76
2024/01/18 11:47:34;;;;;;;62.30;28.70;;;;;;;;;;5055501;28;20223;-77
2024/01/18 11:50:05;;;;;;;67.43;28.40;;;;;;;;;;5055881;28;20214;-76
2024/01/18 11:52:37;;;;;;;61.20;26.93;;;;;;;;;;5055923;28;20645;-77
2024/01/18 11:55:05;;;;;;;64.80;28.63;;;;;;;;;;5056686;28;20224;-77
2024/01/18 11:57:33;;;;;;;69.50;29.53;;;;;;;;;;5056802;28;20196;-76
2024/01/18 12:00:00;;;;;;;69.07;28.83;;;;;;;;;;5056452;28;20322;-76
2024/01/18 12:02:30;;;;;;;65.80;29.27;;;;;;;;;;5055120;28;20196;-76
2024/01/18 12:04:57;;;;;;;68.13;29.77;;;;;;;;;;5056468;28;20245;-76
2024/01/18 12:07:26;;;;;;;61.50;27.70;;;;;;;;;;5056394;28;20200;-76
2024/01/18 12:09:53;;;;;;;58.93;27.43;;;;;;;;;;5055455;28;20200;-76
2024/01/18 12:12:20;;;;;;;58.80;26.00;;;;;;;;;;5055753;28;20196;-77
2024/01/18 12:14:48;;;;;;;56.07;26.13;;;;;;;;;;5056115;28;20285;-76
2024/01/18 12:17:16;;;;;;;56.53;28.30;;;;;;;;;;5054902;28;20200;-76
2024/01/18 12:19:45;;;;;;;58.47;27.63;;;;;;;;;;5055109;28;20286;-76
2024/01/18 12:22:15;;;;;;;60.57;28.87;;;;;;;;;;5054747;28;20218;-77
2024/01/18 12:24:42;;;;;;;56.83;27.10;;;;;;;;;;5054803;28;20188;-76
2024/01/18 12:27:10;;;;;;;66.93;29.60;;;;;;;;;;5055979;28;20200;-76
2024/01/18 12:29:38;;;;;;;63.33;29.43;;;;;;;;;;5054560;28;20192;-77
2024/01/18 12:32:08;;;;;;;74.80;39.03;;;;;;;;;;5054759;28;20345;-77
2024/01/18 12:34:36;;;;;;;86.27;41.73;;;;;;;;;;5055649;28;20228;-77
2024/01/18 12:37:04;;;;;;;60.73;27.83;;;;;;;;;;5054539;28;20271;-76
2024/01/18 12:39:32;;;;;;;53.90;27.30;;;;;;;;;;5055003;28;20200;-76
2024/01/18 12:41:59;;;;;;;78.27;35.33;;;;;;;;;;5051433;28;20250;-77
2024/01/18 12:44:27;;;;;;;67.40;31.13;;;;;;;;;;5043553;28;20196;-77
2024/01/18 12:46:58;;;;;;;75.77;32.87;;;;;;;;;;5046351;28;20197;-76
2024/01/18 12:49:31;;;;;;;76.27;32.20;;;;;;;;;;5045632;28;20218;-77
2024/01/18 12:51:59;;;;;;;75.67;32.90;;;;;;;;;;5045905;28;20257;-76
2024/01/18 12:54:30;;;;;;;86.80;33.10;;;;;;;;;;5043283;28;20224;-77
2024/01/18 12:56:59;;;;;;;84.97;34.97;;;;;;;;;;5044832;28;20215;-77
2024/01/18 12:59:29;;;;;;;87.20;35.00;;;;;;;;;;5051620;28;20660;-77
2024/01/18 13:01:57;;;;;;;96.87;36.60;;;;;;;;;;5054930;28;20208;-76
2024/01/18 13:04:26;;;;;;;89.97;35.83;;;;;;;;;;5054992;28;20192;-77
2024/01/18 13:06:55;;;;;;;85.53;34.60;;;;;;;;;;5054654;28;20271;-76
2024/01/18 13:09:30;;;;;;;87.67;36.03;;;;;;;;;;5037895;28;20279;-77
2024/01/18 13:12:02;;;;;;;88.47;36.40;;;;;;;;;;5054461;28;20200;-77
2024/01/18 13:14:31;;;;;;;86.87;35.53;;;;;;;;;;5045696;28;20227;-78
2024/01/18 13:16:59;;;;;;;81.40;34.03;;;;;;;;;;5044712;28;20204;-78
2024/01/18 13:19:28;;;;;;;90.47;37.20;;;;;;;;;;5043632;28;20283;-77
2024/01/18 13:21:55;;;;;;;90.60;38.37;;;;;;;;;;5040953;28;20266;-77
2024/01/18 13:24:23;;;;;;;97.60;38.63;;;;;;;;;;5045107;28;20254;-77
2024/01/18 13:26:50;;;;;;;88.43;35.97;;;;;;;;;;5048519;28;20262;-78
2024/01/18 13:29:18;;;;;;;82.63;35.97;;;;;;;;;;5043404;28;20193;-78
2024/01/18 13:31:47;;;;;;;84.33;35.63;;;;;;;;;;5025219;28;20225;-77
2024/01/18 13:34:15;;;;;;;82.70;37.10;;;;;;;;;;5042958;28;20221;-77
2024/01/18 13:36:44;;;;;;;82.87;35.47;;;;;;;;;;5053364;28;20200;-76
2024/01/18 13:39:11;;;;;;;82.53;35.40;;;;;;;;;;5042443;28;20691;-76
2024/01/18 13:41:38;;;;;;;76.53;34.40;;;;;;;;;;5047265;28;20219;-76
2024/01/18 13:44:07;;;;;;;72.67;34.20;;;;;;;;;;5048419;28;20228;-76
2024/01/18 13:46:37;;;;;;;81.93;34.77;;;;;;;;;;5052436;28;20219;-76
2024/01/18 13:49:05;;;;;;;80.30;35.23;;;;;;;;;;5023242;28;20757;-76
2024/01/18 13:51:32;;;;;;;78.10;34.77;;;;;;;;;;5051790;28;20334;-77
2024/01/18 13:54:00;;;;;;;88.17;36.37;;;;;;;;;;5035602;28;24088;-76
2024/01/18 13:56:27;;;;;;;84.47;35.10;;;;;;;;;;5034630;28;20216;-76
2024/01/18 13:58:54;;;;;;;82.87;33.63;;;;;;;;;;5048331;28;20239;-76
2024/01/18 14:01:22;;;;;;;72.80;33.83;;;;;;;;;;5040788;28;20713;-77
2024/01/18 14:03:51;;;;;;;77.77;35.67;;;;;;;;;;5042614;28;20219;-76
2024/01/18 14:06:22;;;;;;;77.07;35.43;;;;;;;;;;5038980;28;20248;-76
2024/01/18 14:08:50;;;;;;;80.03;33.50;;;;;;;;;;5036645;28;20304;-76
2024/01/18 14:11:18;;;;;;;75.13;34.00;;;;;;;;;;5041804;28;20232;-76
2024/01/18 14:13:46;;;;;;;86.23;35.70;;;;;;;;;;5040201;28;20230;-77
2024/01/18 14:16:13;;;;;;;78.13;34.73;;;;;;;;;;5041105;28;20232;-76
2024/01/18 14:18:41;;;;;;;84.20;37.67;;;;;;;;;;5040188;28;20226;-76
2024/01/18 14:21:09;;;;;;;77.00;34.30;;;;;;;;;;5039768;28;20231;-76
2024/01/18 14:23:36;;;;;;;77.57;32.50;;;;;;;;;;5042033;28;20224;-76
2024/01/18 14:26:03;;;;;;;72.30;31.60;;;;;;;;;;5045420;28;20243;-76